Time;durP1;ratioP1;P1;durP2;ratioP2;P2;SDS_P1;SDS_P2;PMS_P1;PMS_P2;Temp;Humidity;BMP_temperature;BMP_pressure;BME280_temperature;BME280_humidity;BME280_pressure;Samples;Min_cycle;Max_cycle;Signal;HPM_P1;HPM_P2
2022/12/12 00:01:50;;;;;;;24.92;9.88;;;;;;;-3.00;86.21;97345.58;1764245;81;25842;-63
2022/12/12 00:04:17;;;;;;;25.90;9.73;;;;;;;-2.99;86.54;97333.78;1764763;81;25651;-65
2022/12/12 00:06:44;;;;;;;24.87;9.28;;;;;;;-3.00;86.42;97340.21;1764515;81;27421;-64
2022/12/12 00:09:11;;;;;;;22.13;8.73;;;;;;;-3.00;86.55;97332.17;1764402;81;25730;-68
2022/12/12 00:11:38;;;;;;;26.85;10.25;;;;;;;-3.03;86.40;97332.95;1764654;81;25719;-64
2022/12/12 00:14:05;;;;;;;22.25;10.05;;;;;;;-3.02;86.38;97336.45;1764921;81;25749;-65
2022/12/12 00:16:32;;;;;;;37.85;14.03;;;;;;;-3.03;86.47;97333.47;1764492;81;25711;-69
2022/12/12 00:18:58;;;;;;;27.93;10.55;;;;;;;-3.00;86.55;97329.49;1764644;81;27454;-64
2022/12/12 00:21:27;;;;;;;28.45;10.85;;;;;;;-3.00;86.53;97328.94;1764348;81;25453;-67
2022/12/12 00:23:56;;;;;;;22.93;8.58;;;;;;;-2.99;86.44;97333.78;1764839;81;25541;-66
2022/12/12 00:26:29;;;;;;;24.85;8.68;;;;;;;-3.00;86.33;97332.95;1764935;81;26305;-66
2022/12/12 00:28:57;;;;;;;21.07;8.30;;;;;;;-3.05;86.24;97335.07;1764918;81;25476;-67
2022/12/12 00:31:24;;;;;;;22.48;9.03;;;;;;;-3.05;86.43;97338.30;1764565;81;27330;-63
2022/12/12 00:33:50;;;;;;;21.02;8.88;;;;;;;-3.07;86.39;97333.72;1764231;81;25418;-66
2022/12/12 00:36:23;;;;;;;18.75;8.03;;;;;;;-3.08;86.46;97334.24;1778513;80;25491;-66
2022/12/12 00:38:52;;;;;;;18.87;8.98;;;;;;;-3.07;86.53;97335.88;1781375;80;25724;-66
2022/12/12 00:41:19;;;;;;;18.77;8.35;;;;;;;-3.07;86.52;97339.90;1781437;80;25463;-67
2022/12/12 00:43:47;;;;;;;21.07;7.75;;;;;;;-3.05;86.61;97339.64;1781518;80;27425;-68
2022/12/12 00:46:20;;;;;;;17.77;7.50;;;;;;;-3.06;86.44;97337.48;1781280;80;25403;-65
2022/12/12 00:48:46;;;;;;;19.65;8.18;;;;;;;-3.09;86.30;97334.50;1781753;80;25744;-66
2022/12/12 00:51:17;;;;;;;17.75;8.10;;;;;;;-3.10;86.22;97336.39;1781351;80;25757;-63
2022/12/12 00:53:44;;;;;;;19.90;8.53;;;;;;;-3.14;86.25;97340.63;1780925;80;25419;-62
2022/12/12 00:56:13;;;;;;;22.60;9.03;;;;;;;-3.12;86.48;97339.03;1781607;80;27433;-62
2022/12/12 00:58:40;;;;;;;17.42;8.18;;;;;;;-3.13;86.34;97334.75;1781420;80;25554;-63
2022/12/12 01:01:14;;;;;;;16.70;7.60;;;;;;;-3.11;86.54;97336.65;1781275;80;25735;-62
2022/12/12 01:03:41;;;;;;;25.25;8.75;;;;;;;-3.11;86.32;97339.33;1781360;80;25849;-62
2022/12/12 01:06:08;;;;;;;25.77;10.65;;;;;;;-3.13;86.46;97334.75;1781710;80;25577;-62
2022/12/12 01:08:35;;;;;;;25.57;10.88;;;;;;;-3.13;86.53;97346.80;1781351;80;27439;-62
2022/12/12 01:11:01;;;;;;;35.15;12.50;;;;;;;-3.13;86.44;97335.56;1781605;80;25431;-63
2022/12/12 01:13:28;;;;;;;36.98;14.60;;;;;;;-3.08;86.83;97338.81;1781351;80;25400;-64
2022/12/12 01:15:55;;;;;;;37.78;14.23;;;;;;;-3.06;86.71;97341.50;1781231;80;25800;-62
2022/12/12 01:18:22;;;;;;;30.55;12.73;;;;;;;-3.03;86.63;97337.49;1781373;80;25399;-62
2022/12/12 01:20:49;;;;;;;31.45;13.08;;;;;;;-3.03;86.50;97333.47;1781315;80;27520;-63
2022/12/12 01:23:15;;;;;;;26.37;11.28;;;;;;;-3.02;86.67;97337.79;1781267;80;27182;-62
2022/12/12 01:25:42;;;;;;;22.60;9.90;;;;;;;-3.04;86.58;97337.23;1781724;80;25412;-62
2022/12/12 01:28:17;;;;;;;30.50;12.25;;;;;;;-3.03;86.59;97334.29;1781264;80;25738;-62
2022/12/12 01:30:51;;;;;;;27.15;11.05;;;;;;;-3.02;86.67;97333.22;1781825;80;25425;-70
2022/12/12 01:33:23;;;;;;;37.70;11.90;;;;;;;-3.00;86.58;97333.52;1780874;80;25981;-66
2022/12/12 01:35:59;;;;;;;20.05;8.88;;;;;;;-3.03;86.55;97321.41;1780264;80;25684;-62
2022/12/12 01:38:36;;;;;;;25.20;10.93;;;;;;;-3.03;86.57;97326.77;1781480;80;25602;-66
2022/12/12 01:41:07;;;;;;;21.60;9.45;;;;;;;-3.03;86.51;97330.27;1781659;80;26583;-66
2022/12/12 01:43:40;;;;;;;24.92;9.33;;;;;;;-3.04;86.56;97325.16;1781960;80;25696;-67
2022/12/12 01:46:44;;;;;;;17.20;8.25;;;;;;;-3.03;86.45;97325.43;1781640;80;27442;-70
2022/12/12 01:49:23;;;;;;;26.17;9.03;;;;;;;-3.05;86.52;97321.67;1781300;80;25585;-74
2022/12/12 01:51:55;;;;;;;18.15;8.23;;;;;;;-3.04;86.48;97322.48;1781412;80;25415;-70
2022/12/12 01:54:32;;;;;;;23.00;10.65;;;;;;;-3.08;86.43;97319.50;1780179;80;25748;-66
2022/12/12 01:57:02;;;;;;;20.25;9.45;;;;;;;-3.08;86.56;97322.73;1781715;80;25664;-77
2022/12/12 01:59:29;;;;;;;16.85;8.48;;;;;;;-3.07;86.47;97318.98;1781488;80;27427;-65
2022/12/12 02:01:56;;;;;;;25.55;8.93;;;;;;;-3.09;86.38;97322.44;1781213;80;27189;-71
2022/12/12 02:04:23;;;;;;;24.20;10.15;;;;;;;-3.12;86.38;97314.39;1781265;80;25412;-64
2022/12/12 02:06:51;;;;;;;19.02;8.88;;;;;;;-3.12;86.56;97307.69;1781339;80;25731;-70
2022/12/12 02:09:19;;;;;;;17.67;7.92;;;;;;;-3.13;86.57;97305.27;1781870;80;25392;-70
2022/12/12 02:11:52;;;;;;;18.82;8.53;;;;;;;-3.10;86.66;97312.80;1781776;80;28072;-67
2022/12/12 02:14:24;;;;;;;15.40;6.90;;;;;;;-3.10;86.52;97315.47;1781066;80;25604;-66
2022/12/12 02:17:14;;;;;;;14.85;7.28;;;;;;;-3.10;86.56;97312.80;1781662;80;25459;-64
2022/12/12 02:19:58;;;;;;;21.77;8.83;;;;;;;-3.11;86.56;97303.15;1781351;80;25803;-63
2022/12/12 02:22:54;;;;;;;19.62;8.53;;;;;;;-3.12;86.58;97310.37;1774913;80;25655;-63
2022/12/12 02:25:50;;;;;;;15.50;7.10;;;;;;;-3.12;86.64;97305.02;1781343;80;28368;-67
2022/12/12 02:28:56;;;;;;;17.55;7.03;;;;;;;-3.16;86.54;97300.69;1778673;80;25562;-70
2022/12/12 02:31:51;;;;;;;16.15;7.55;;;;;;;-3.13;86.74;97299.39;1781310;80;25428;-63
2022/12/12 02:34:46;;;;;;;17.77;6.78;;;;;;;-3.12;86.80;97302.85;1781463;80;25935;-64
2022/12/12 02:37:38;;;;;;;15.50;6.78;;;;;;;-3.16;86.72;97297.22;1780987;80;25616;-63
2022/12/12 02:40:12;;;;;;;13.58;5.72;;;;;;;-3.20;86.67;97300.94;1781301;80;29517;-63
2022/12/12 02:42:50;;;;;;;20.82;7.67;;;;;;;-3.23;86.69;97308.15;1781253;80;25649;-64
2022/12/12 02:45:28;;;;;;;16.97;7.78;;;;;;;-3.24;86.84;97302.52;1780697;80;25614;-64
2022/12/12 02:48:08;;;;;;;17.80;8.05;;;;;;;-3.20;87.07;97308.97;1781031;80;25644;-63
2022/12/12 02:50:36;;;;;;;12.55;5.55;;;;;;;-3.19;86.89;97309.80;1721506;83;25711;-64
2022/12/12 02:53:04;;;;;;;11.73;4.37;;;;;;;-3.21;86.81;97303.87;1721929;83;27440;-63
2022/12/12 02:55:30;;;;;;;12.47;5.62;;;;;;;-3.25;86.73;97310.81;1722189;83;25906;-65
2022/12/12 02:57:58;;;;;;;16.17;7.03;;;;;;;-3.28;86.80;97306.79;1722084;83;25697;-63
2022/12/12 03:00:25;;;;;;;12.85;6.30;;;;;;;-3.25;86.91;97300.10;1722489;83;26319;-63
2022/12/12 03:09:52;;;;;;;17.10;7.33;;;;;;;-3.22;86.95;97293.70;1721972;83;25657;-63
2022/12/12 03:12:47;;;;;;;18.20;7.17;;;;;;;-3.21;86.94;97301.19;1708190;84;25664;-63
2022/12/12 03:15:18;;;;;;;14.03;6.00;;;;;;;-3.20;87.01;97307.64;1639982;87;25920;-64
2022/12/12 03:18:10;;;;;;;11.33;5.75;;;;;;;-3.17;87.02;97311.14;1645380;87;25763;-64
2022/12/12 03:20:51;;;;;;;22.22;8.58;;;;;;;-3.18;86.98;97308.72;1645126;87;29572;-63
2022/12/12 03:23:23;;;;;;;11.05;5.03;;;;;;;-3.17;86.96;97312.48;1646514;87;25863;-64
2022/12/12 03:26:00;;;;;;;15.58;7.12;;;;;;;-3.19;86.92;97312.47;1645524;87;25542;-64
2022/12/12 03:28:32;;;;;;;14.80;6.60;;;;;;;-3.19;86.98;97310.58;1653131;86;25696;-64
2022/12/12 03:31:03;;;;;;;24.32;8.70;;;;;;;-3.18;87.10;97304.70;1656680;86;25516;-69
2022/12/12 03:33:38;;;;;;;;;;;;;;;-3.18;87.07;97302.84;1659268;86;27384;-64
2022/12/12 03:36:15;;;;;;;15.05;6.22;;;;;;;-3.22;86.98;97300.92;1653666;86;25520;-64
2022/12/12 03:38:47;;;;;;;14.73;6.17;;;;;;;-3.20;87.18;97301.48;1642085;87;25760;-64
2022/12/12 03:41:18;;;;;;;16.07;7.87;;;;;;;-3.19;87.22;97299.07;1648753;87;26049;-64
2022/12/12 03:43:59;;;;;;;15.83;7.03;;;;;;;-3.19;87.26;97307.90;1658459;86;25660;-64
2022/12/12 03:46:33;;;;;;;14.43;6.70;;;;;;;-3.19;87.18;97300.41;1664556;86;33092;-64
2022/12/12 03:49:15;;;;;;;16.37;6.67;;;;;;;-3.19;87.25;97299.07;1664585;86;25659;-64
2022/12/12 03:51:47;;;;;;;12.15;5.35;;;;;;;-3.19;87.25;97301.75;1744465;81;25710;-64
2022/12/12 03:54:31;;;;;;;12.37;6.15;;;;;;;-3.24;87.16;97297.69;1764442;81;25818;-64
2022/12/12 03:57:02;;;;;;;14.68;6.95;;;;;;;-3.25;87.25;97294.22;1764495;81;25398;-71
2022/12/12 03:59:46;;;;;;;12.60;5.22;;;;;;;-3.25;87.24;97296.90;1765071;81;27391;-65
2022/12/12 04:02:33;;;;;;;12.35;6.03;;;;;;;-3.25;87.21;97301.44;1763478;81;27144;-64
2022/12/12 04:05:27;;;;;;;13.50;6.35;;;;;;;-3.24;87.21;97304.38;1764511;81;25601;-64
2022/12/12 04:08:11;;;;;;;16.48;7.12;;;;;;;-3.26;87.26;97303.30;1762145;81;25822;-66
2022/12/12 04:13:44;;;;;;;14.03;6.55;;;;;;;-3.24;87.27;97296.34;1764471;81;25598;-73
2022/12/12 04:16:18;;;;;;;14.05;6.70;;;;;;;-3.23;87.36;97300.11;1760360;81;25584;-71
2022/12/12 04:19:01;;;;;;;21.60;8.05;;;;;;;-3.19;87.40;97295.05;1764950;81;25609;-62
2022/12/12 04:24:35;;;;;;;25.40;8.78;;;;;;;-3.18;87.28;97297.48;1764488;81;25660;-71
2022/12/12 04:27:25;;;;;;;542.12;127.87;;;;;;;-3.18;87.28;97294.80;1764469;81;27400;-64
2022/12/12 04:30:08;;;;;;;205.10;40.80;;;;;;;-3.16;87.19;97295.87;1668505;86;25782;-62
2022/12/12 04:32:55;;;;;;;28.52;9.80;;;;;;;-3.16;87.35;97291.86;1667990;86;25742;-71
2022/12/12 04:35:29;;;;;;;92.47;20.82;;;;;;;-3.15;87.28;97296.14;1668666;86;25735;-64
2022/12/12 04:38:03;;;;;;;54.10;14.15;;;;;;;-3.15;87.33;97293.47;1690391;84;25661;-63
2022/12/12 04:40:41;;;;;;;31.20;9.95;;;;;;;-3.11;87.44;97295.11;1687049;84;27409;-63
2022/12/12 04:43:17;;;;;;;31.77;9.08;;;;;;;-3.11;87.35;97293.22;1680406;84;25724;-66
2022/12/12 04:45:56;;;;;;;26.42;9.33;;;;;;;-3.09;87.29;97292.95;1676198;85;25806;-66
2022/12/12 04:48:34;;;;;;;39.83;11.38;;;;;;;-3.08;87.20;97289.23;1679814;84;25774;-63
2022/12/12 04:51:02;;;;;;;68.90;16.45;;;;;;;-3.09;87.18;97288.94;1658914;85;25804;-67
2022/12/12 04:53:42;;;;;;;92.27;22.58;;;;;;;-3.08;87.26;97290.58;1678624;85;27417;-64
2022/12/12 04:56:12;;;;;;;107.12;23.95;;;;;;;-3.07;87.28;97294.86;1677765;84;25511;-63
2022/12/12 04:58:39;;;;;;;65.10;17.45;;;;;;;-3.04;87.39;97299.18;1661040;84;25710;-65
2022/12/12 05:01:43;;;;;;;85.28;19.60;;;;;;;-2.99;87.38;97296.25;1680734;84;25813;-65
2022/12/12 05:04:23;;;;;;;97.35;24.37;;;;;;;-2.99;87.23;97297.59;1720823;80;25724;-67
2022/12/12 05:06:55;;;;;;;61.60;17.48;;;;;;;-3.02;87.28;97297.03;1767063;80;29450;-65
2022/12/12 05:09:22;;;;;;;104.27;27.30;;;;;;;-2.98;87.43;97295.17;1771428;80;25664;-65
2022/12/12 05:11:48;;;;;;;130.52;30.88;;;;;;;-2.96;87.36;97305.11;1772319;80;25434;-65
2022/12/12 05:14:16;;;;;;;41.50;14.18;;;;;;;-2.94;87.42;97300.31;1781320;80;25805;-64
2022/12/12 05:16:48;;;;;;;71.35;19.87;;;;;;;-2.94;87.19;97303.78;1781719;80;25641;-65
2022/12/12 05:19:14;;;;;;;35.00;12.88;;;;;;;-2.94;87.26;97305.13;1781040;80;27370;-65
2022/12/12 05:21:40;;;;;;;31.65;12.07;;;;;;;-2.98;87.12;97296.52;1781646;80;25700;-65
2022/12/12 05:24:07;;;;;;;62.43;18.07;;;;;;;-2.94;87.40;97292.27;1781729;80;25458;-65
2022/12/12 05:26:35;;;;;;;25.68;9.48;;;;;;;-2.94;87.35;97299.77;1781644;80;25751;-65
2022/12/12 05:29:04;;;;;;;19.48;8.70;;;;;;;-2.94;87.29;97297.63;1781810;80;25569;-65
2022/12/12 05:31:30;;;;;;;26.23;10.40;;;;;;;-2.96;87.14;97298.41;1781673;80;28585;-64
2022/12/12 05:33:56;;;;;;;34.58;12.82;;;;;;;-2.97;87.21;97300.83;1781260;80;25691;-64
2022/12/12 05:36:23;;;;;;;39.03;12.30;;;;;;;-2.98;87.28;97301.88;1779928;80;25626;-64
2022/12/12 05:38:49;;;;;;;32.50;12.33;;;;;;;-2.97;87.49;97302.95;1779078;79;25761;-66
2022/12/12 05:41:16;;;;;;;28.80;10.68;;;;;;;-2.94;87.41;97304.33;1781281;80;25664;-64
2022/12/12 05:43:42;;;;;;;93.07;22.37;;;;;;;-2.95;87.27;97301.36;1781366;80;29707;-67
2022/12/12 05:46:08;;;;;;;92.85;23.10;;;;;;;-2.95;87.38;97302.70;1781252;80;27242;-66
2022/12/12 05:48:35;;;;;;;65.52;19.60;;;;;;;-2.95;87.44;97309.41;1781601;80;25656;-64
2022/12/12 05:51:02;;;;;;;61.00;16.90;;;;;;;-2.90;87.51;97309.45;1781276;80;25725;-66
2022/12/12 05:53:29;;;;;;;36.88;13.62;;;;;;;-2.89;87.35;97308.37;1781326;80;25596;-67
2022/12/12 05:55:56;;;;;;;63.42;18.37;;;;;;;-2.90;87.23;97312.13;1781259;80;27456;-66
2022/12/12 05:58:22;;;;;;;46.70;16.15;;;;;;;-2.88;87.45;97312.66;1781949;80;25710;-68
2022/12/12 06:00:51;;;;;;;53.98;17.00;;;;;;;-2.87;87.37;97310.27;1781807;80;25707;-64
2022/12/12 06:03:19;;;;;;;36.17;13.18;;;;;;;-2.85;87.40;97310.01;1781548;80;25834;-64
2022/12/12 06:05:45;;;;;;;122.37;28.90;;;;;;;-2.84;87.33;97310.27;1781361;80;25659;-66
2022/12/12 06:08:13;;;;;;;43.15;14.75;;;;;;;-2.82;87.40;97318.33;1781242;80;27403;-63
2022/12/12 06:10:40;;;;;;;65.97;19.35;;;;;;;-2.83;87.25;97317.24;1781276;80;27125;-64
2022/12/12 06:13:06;;;;;;;76.62;21.40;;;;;;;-2.82;87.27;97318.87;1781584;80;25660;-63
2022/12/12 06:15:32;;;;;;;32.73;13.55;;;;;;;-2.82;87.27;97322.34;1781254;80;25734;-64
2022/12/12 06:17:58;;;;;;;29.15;11.83;;;;;;;-2.80;87.18;97320.75;1781387;80;25446;-64
2022/12/12 06:20:24;;;;;;;69.17;19.15;;;;;;;-2.79;87.17;97321.04;1781518;80;28122;-63
2022/12/12 06:22:51;;;;;;;76.55;23.02;;;;;;;-2.82;87.13;97318.87;1781140;80;25742;-63
2022/12/12 06:25:17;;;;;;;54.77;17.37;;;;;;;-2.82;87.25;97322.90;1781260;80;25699;-63
2022/12/12 06:27:43;;;;;;;85.20;23.90;;;;;;;-2.80;87.27;97329.61;1781382;80;25812;-66
2022/12/12 06:30:11;;;;;;;53.23;16.90;;;;;;;-2.76;87.33;97332.59;1781777;80;25637;-63
2022/12/12 06:32:37;;;;;;;102.47;26.75;;;;;;;-2.75;87.24;97330.70;1781323;80;27460;-63
2022/12/12 06:35:04;;;;;;;80.62;24.40;;;;;;;-2.74;87.16;97335.80;1781603;80;25739;-64
2022/12/12 06:37:31;;;;;;;74.75;20.88;;;;;;;-2.71;87.31;97336.62;1772440;80;25600;-63
2022/12/12 06:39:57;;;;;;;52.75;18.90;;;;;;;-2.72;87.15;97335.55;1764056;81;25837;-64
2022/12/12 06:42:23;;;;;;;59.65;20.25;;;;;;;-2.75;87.08;97333.37;1764044;81;25652;-63
2022/12/12 06:44:49;;;;;;;101.05;27.35;;;;;;;-2.72;87.37;97333.67;1764035;81;27383;-63
2022/12/12 06:47:16;;;;;;;38.83;14.73;;;;;;;-2.69;87.31;97339.05;1763969;81;25662;-63
2022/12/12 06:49:42;;;;;;;49.25;17.37;;;;;;;-2.70;87.16;97342.28;1763978;81;25645;-63
2022/12/12 06:52:08;;;;;;;62.67;17.17;;;;;;;-2.69;87.24;97344.41;1764019;81;25772;-64
2022/12/12 06:54:35;;;;;;;41.55;15.65;;;;;;;-2.66;87.25;97346.58;1764485;81;25468;-65
2022/12/12 06:57:01;;;;;;;48.23;16.25;;;;;;;-2.65;87.28;97344.97;1764065;81;26637;-64
2022/12/12 06:59:29;;;;;;;38.60;14.87;;;;;;;-2.66;87.13;97351.41;1763762;81;27153;-64
2022/12/12 07:01:56;;;;;;;38.35;14.40;;;;;;;-2.66;87.14;97348.73;1763868;81;25728;-63
2022/12/12 07:04:24;;;;;;;28.52;13.35;;;;;;;-2.66;87.23;97347.91;1763735;81;25738;-63
2022/12/12 07:06:51;;;;;;;44.00;15.45;;;;;;;-2.65;87.23;97351.67;1763840;81;25451;-63
2022/12/12 07:09:19;;;;;;;36.50;14.35;;;;;;;-2.62;87.28;97355.70;1764068;81;27568;-66
2022/12/12 07:11:46;;;;;;;34.58;13.18;;;;;;;-2.59;87.30;97362.45;1763853;81;26419;-63
2022/12/12 07:14:13;;;;;;;35.60;14.40;;;;;;;-2.57;87.19;97358.43;1763731;81;25737;-71
2022/12/12 07:16:39;;;;;;;29.07;12.30;;;;;;;-2.55;87.24;97361.67;1764145;81;25791;-69
2022/12/12 07:19:06;;;;;;;41.98;14.75;;;;;;;-2.56;87.03;97361.38;1763870;81;25573;-75
2022/12/12 07:21:33;;;;;;;76.22;23.75;;;;;;;-2.57;86.97;97361.11;1763723;81;27373;-75
2022/12/12 07:23:59;;;;;;;51.63;17.40;;;;;;;-2.56;87.01;97364.06;1764155;81;25587;-72
2022/12/12 07:26:25;;;;;;;78.47;25.97;;;;;;;-2.56;86.98;97366.74;1764000;81;25662;-74
2022/12/12 07:28:52;;;;;;;46.60;18.75;;;;;;;-2.53;87.23;97367.56;1763856;81;25900;-64
2022/12/12 07:31:23;;;;;;;48.70;17.98;;;;;;;-2.52;87.11;97369.20;1763723;81;25450;-64
2022/12/12 07:33:49;;;;;;;51.90;18.70;;;;;;;-2.50;87.02;97367.59;1763976;81;27579;-64
2022/12/12 07:36:16;;;;;;;42.25;18.20;;;;;;;-2.49;86.99;97367.86;1759841;81;25783;-73
2022/12/12 07:38:43;;;;;;;66.42;21.12;;;;;;;-2.47;86.96;97367.08;1763851;81;25704;-65
2022/12/12 07:41:14;;;;;;;86.28;24.87;;;;;;;-2.44;87.13;97371.11;1764121;81;26525;-72
2022/12/12 07:43:44;;;;;;;39.42;15.35;;;;;;;-2.41;87.10;97364.70;1764193;81;25647;-64
2022/12/12 07:46:16;;;;;;;52.62;17.90;;;;;;;-2.40;86.98;97370.33;1764135;81;27479;-64
2022/12/12 07:48:43;;;;;;;49.50;18.70;;;;;;;-2.39;86.82;97361.72;1763699;81;25756;-75
2022/12/12 07:51:09;;;;;;;51.08;18.70;;;;;;;-2.37;86.88;97373.02;1763960;81;25560;-63
2022/12/12 07:53:37;;;;;;;52.05;18.92;;;;;;;-2.39;86.75;97367.09;1763679;81;25782;-77
2022/12/12 07:56:09;;;;;;;57.10;20.35;;;;;;;-2.35;87.07;97366.05;1763781;81;25750;-68
2022/12/12 07:58:36;;;;;;;34.92;14.95;;;;;;;-2.32;86.94;97366.87;1764035;81;27542;-65
2022/12/12 08:01:12;;;;;;;46.23;16.12;;;;;;;-2.28;86.95;97371.98;1763888;81;25738;-64
2022/12/12 08:03:39;;;;;;;45.45;16.70;;;;;;;-2.24;86.98;97372.27;1764172;81;25699;-65
2022/12/12 08:06:06;;;;;;;56.08;18.60;;;;;;;-2.21;86.97;97361.83;1763690;81;25739;-65
2022/12/12 08:08:33;;;;;;;32.93;14.38;;;;;;;-2.18;86.76;97367.20;1764279;81;25700;-70
2022/12/12 08:11:07;;;;;;;41.98;16.55;;;;;;;-2.19;86.58;97369.07;1763785;81;27402;-65
2022/12/12 08:13:36;;;;;;;44.75;17.62;;;;;;;-2.19;86.63;97367.73;1763271;81;25430;-65
2022/12/12 08:16:04;;;;;;;60.30;21.97;;;;;;;-2.16;86.70;97377.16;1764022;81;25656;-65
2022/12/12 08:18:31;;;;;;;60.52;21.68;;;;;;;-2.11;86.82;97375.00;1764104;81;25730;-65
2022/12/12 08:20:57;;;;;;;57.83;20.72;;;;;;;-2.06;86.97;97376.38;1763782;81;25666;-69
2022/12/12 08:23:24;;;;;;;47.48;19.73;;;;;;;-2.05;86.56;97377.98;1763799;81;27514;-66
2022/12/12 08:25:50;;;;;;;44.35;17.73;;;;;;;-2.04;86.58;97379.05;1764006;81;25587;-70
2022/12/12 08:28:17;;;;;;;38.35;15.30;;;;;;;-2.03;86.50;97378.01;1764286;81;25680;-68
2022/12/12 08:30:48;;;;;;;42.17;16.30;;;;;;;-2.00;86.39;97377.19;1763879;81;25936;-65
2022/12/12 08:33:14;;;;;;;37.35;14.93;;;;;;;-1.98;86.54;97381.77;1763446;81;25451;-66
2022/12/12 08:35:40;;;;;;;46.50;16.55;;;;;;;-1.95;86.17;97379.91;1763859;81;27372;-76
2022/12/12 08:38:07;;;;;;;45.88;17.85;;;;;;;-1.96;86.33;97379.64;1756730;81;25676;-69
2022/12/12 08:40:35;;;;;;;36.50;15.90;;;;;;;-1.91;86.44;97381.80;1750252;82;25397;-69
2022/12/12 08:43:01;;;;;;;38.92;16.10;;;;;;;-1.85;86.18;97383.14;1750641;82;25761;-70
2022/12/12 08:45:28;;;;;;;42.38;17.42;;;;;;;-1.84;86.08;97376.72;1750445;82;25626;-68
2022/12/12 08:47:54;;;;;;;52.75;20.62;;;;;;;-1.79;86.28;97382.91;1750413;82;27484;-66
2022/12/12 08:50:20;;;;;;;48.70;19.73;;;;;;;-1.73;85.89;97386.41;1750742;82;25675;-66
2022/12/12 08:52:47;;;;;;;47.13;19.30;;;;;;;-1.67;86.14;97389.38;1746486;82;26229;-67
2022/12/12 08:55:13;;;;;;;44.38;17.27;;;;;;;-1.65;85.71;97389.93;1750221;82;26247;-64
2022/12/12 08:57:40;;;;;;;45.25;17.98;;;;;;;-1.62;85.47;97392.61;1750594;82;25461;-64
2022/12/12 09:00:09;;;;;;;54.38;20.50;;;;;;;-1.55;85.88;97389.13;1750384;82;27459;-66
2022/12/12 09:02:35;;;;;;;41.50;15.40;;;;;;;-1.47;85.75;97393.17;1750732;82;25646;-65
2022/12/12 09:05:02;;;;;;;43.38;15.90;;;;;;;-1.43;85.34;97390.25;1750580;82;25617;-63
2022/12/12 09:07:28;;;;;;;36.83;15.20;;;;;;;-1.39;85.33;97394.53;1750313;82;25812;-63
2022/12/12 09:09:55;;;;;;;40.45;14.95;;;;;;;-1.34;85.19;97391.05;1750452;82;25602;-63
2022/12/12 09:12:21;;;;;;;30.15;14.10;;;;;;;-1.26;85.30;97394.56;1750502;82;27475;-65
2022/12/12 09:14:48;;;;;;;40.50;15.83;;;;;;;-1.25;85.15;97389.45;1750518;82;25739;-72
2022/12/12 09:17:14;;;;;;;27.73;12.37;;;;;;;-1.18;84.91;97398.61;1750688;82;25686;-64
2022/12/12 09:19:41;;;;;;;31.93;13.68;;;;;;;-1.15;84.73;97386.77;1750763;82;25795;-64
2022/12/12 09:22:07;;;;;;;38.55;15.93;;;;;;;-1.19;84.00;97393.76;1750608;82;25610;-64
2022/12/12 09:24:33;;;;;;;26.05;10.23;;;;;;;-1.12;84.57;97397.54;1750627;82;27354;-64
2022/12/12 09:26:59;;;;;;;29.95;12.98;;;;;;;-1.14;83.80;97401.84;1750695;82;25421;-65
2022/12/12 09:29:26;;;;;;;36.45;13.55;;;;;;;-1.16;84.13;97395.09;1750253;82;25591;-63
2022/12/12 09:31:52;;;;;;;36.25;15.38;;;;;;;-1.09;84.28;97397.00;1750509;82;25786;-65
2022/12/12 09:34:19;;;;;;;32.15;13.00;;;;;;;-1.05;84.31;97395.91;1750624;82;25740;-65
2022/12/12 09:36:46;;;;;;;39.92;16.57;;;;;;;-1.01;83.70;97392.95;1750330;82;27502;-66
2022/12/12 09:39:12;;;;;;;30.32;12.82;;;;;;;-1.00;83.75;97395.92;1761451;81;25455;-65
2022/12/12 09:41:38;;;;;;;25.17;11.00;;;;;;;-0.95;83.99;97393.77;1764093;81;25749;-65
2022/12/12 09:44:18;;;;;;;30.85;12.78;;;;;;;-0.85;83.94;97392.95;1763965;81;25705;-66
2022/12/12 09:46:56;;;;;;;20.80;10.25;;;;;;;-0.84;83.49;97392.67;1760453;81;25665;-65
2022/12/12 09:49:46;;;;;;;24.35;10.50;;;;;;;-0.82;83.43;97393.22;1763842;81;27439;-65
2022/12/12 09:52:26;;;;;;;22.05;9.83;;;;;;;-0.81;83.51;97390.00;1764018;81;25612;-66
2022/12/12 09:54:53;;;;;;;28.30;11.70;;;;;;;-0.86;83.27;97394.03;1763040;81;25658;-66
2022/12/12 09:57:36;;;;;;;31.12;11.93;;;;;;;-0.88;83.22;97394.30;1764083;81;26103;-66
2022/12/12 10:00:11;;;;;;;29.05;11.90;;;;;;;-0.89;83.36;97396.73;1764015;81;25598;-67
2022/12/12 10:03:23;;;;;;;21.52;9.33;;;;;;;-0.87;83.61;97403.97;1763887;81;27478;-65
2022/12/12 10:06:09;;;;;;;30.50;13.20;;;;;;;-0.87;83.16;97401.28;1763971;81;25653;-64
2022/12/12 10:09:08;;;;;;;39.58;15.83;;;;;;;-0.84;83.49;97401.30;1764297;81;25675;-64
2022/12/12 10:11:53;;;;;;;30.55;12.07;;;;;;;-0.78;83.64;97406.92;1763748;81;25799;-64
2022/12/12 10:14:48;;;;;;;27.85;10.98;;;;;;;-0.78;83.02;97402.88;1763962;81;25432;-63
2022/12/12 10:17:19;;;;;;;30.85;11.63;;;;;;;-0.79;82.85;97402.09;1763798;81;27467;-64
2022/12/12 10:19:54;;;;;;;31.10;11.60;;;;;;;-0.78;82.99;97402.36;1731917;81;25858;-65
2022/12/12 10:22:37;;;;;;;28.77;11.35;;;;;;;-0.77;83.31;97397.80;1763661;81;25431;-64
2022/12/12 10:25:33;;;;;;;31.07;11.10;;;;;;;-0.74;82.92;97394.56;1763750;81;25771;-64
2022/12/12 10:28:07;;;;;;;29.65;12.05;;;;;;;-0.65;83.23;97398.33;1712730;83;25774;-64
2022/12/12 10:30:39;;;;;;;32.63;12.98;;;;;;;-0.66;82.74;97395.34;1711492;83;27439;-64
2022/12/12 10:33:58;;;;;;;28.90;12.65;;;;;;;-0.58;82.78;97389.95;1707857;83;25761;-65
2022/12/12 10:37:06;;;;;;;21.27;10.40;;;;;;;-0.52;82.90;97392.91;1699988;84;25742;-64
2022/12/12 10:40:00;;;;;;;25.25;11.22;;;;;;;-0.53;82.35;97387.27;1666195;86;25855;-66
2022/12/12 10:42:59;;;;;;;27.65;10.58;;;;;;;-0.61;82.24;97391.05;1635619;87;25807;-65
2022/12/12 10:45:56;;;;;;;23.22;11.05;;;;;;;-0.70;82.49;97396.16;1639237;87;27600;-65
2022/12/12 10:48:23;;;;;;;19.35;8.85;;;;;;;-0.73;82.85;97391.31;1639512;87;25726;-64
2022/12/12 10:50:57;;;;;;;23.65;9.75;;;;;;;-0.79;82.41;97394.55;1639327;87;25715;-65
2022/12/12 10:53:24;;;;;;;29.87;12.73;;;;;;;-0.82;82.94;97387.84;1617591;87;25800;-69
2022/12/12 10:56:13;;;;;;;20.62;10.32;;;;;;;-0.78;83.53;97390.25;1639098;87;25537;-65
2022/12/12 10:58:43;;;;;;;23.55;11.75;;;;;;;-0.71;83.33;97387.83;1637794;86;27445;-66
2022/12/12 11:01:20;;;;;;;19.90;8.75;;;;;;;-0.73;83.01;97398.86;1639378;87;25704;-65
2022/12/12 11:03:49;;;;;;;20.02;9.25;;;;;;;-0.81;82.74;97399.42;1637037;87;25788;-65
2022/12/12 11:06:32;;;;;;;25.40;11.35;;;;;;;-0.78;83.10;97397.50;1637444;87;25822;-65
2022/12/12 11:09:23;;;;;;;27.55;12.50;;;;;;;-0.71;83.32;97398.05;1637019;87;25824;-65
2022/12/12 11:12:14;;;;;;;30.27;13.65;;;;;;;-0.69;83.49;97389.72;1637724;87;27605;-67
2022/12/12 11:14:46;;;;;;;;;;;;;;;-0.63;83.58;97396.70;1648613;86;25746;-65
2022/12/12 11:17:34;;;;;;;21.70;9.03;;;;;;;-0.57;83.48;97390.23;1665664;85;25679;-66
2022/12/12 11:20:06;;;;;;;30.15;12.28;;;;;;;-0.56;83.32;97382.95;1651562;86;25750;-65
2022/12/12 11:22:33;;;;;;;23.12;10.03;;;;;;;-0.56;83.19;97384.30;1662421;86;25688;-65
2022/12/12 11:24:59;;;;;;;25.37;10.13;;;;;;;-0.61;82.27;97382.42;1661872;86;27401;-65
2022/12/12 11:27:30;;;;;;;27.30;11.50;;;;;;;-0.66;82.86;97379.20;1661981;86;26005;-65
2022/12/12 11:30:05;;;;;;;27.77;10.55;;;;;;;-0.68;82.74;97386.75;1662396;86;25783;-66
2022/12/12 11:32:41;;;;;;;39.33;15.13;;;;;;;-0.69;83.09;97386.47;1660928;86;25543;-65
2022/12/12 11:35:22;;;;;;;24.55;10.48;;;;;;;-0.70;83.11;97386.73;1662217;86;25501;-65
2022/12/12 11:37:53;;;;;;;28.00;11.45;;;;;;;-0.78;82.63;97378.67;1658728;86;27469;-63
2022/12/12 11:40:27;;;;;;;16.80;6.95;;;;;;;-0.84;83.04;97383.81;1661939;86;26249;-67
2022/12/12 11:43:36;;;;;;;24.67;11.57;;;;;;;-0.87;82.98;97379.77;1661803;86;25923;-65
2022/12/12 11:46:18;;;;;;;18.82;8.70;;;;;;;-0.93;83.07;97385.69;1662021;86;26237;-67
2022/12/12 11:48:55;;;;;;;36.25;13.22;;;;;;;-0.93;83.30;97392.95;1662068;86;25732;-67
2022/12/12 11:51:43;;;;;;;20.35;9.55;;;;;;;-0.92;83.58;97389.98;1662173;86;27823;-67
2022/12/12 11:54:31;;;;;;;28.90;11.65;;;;;;;-0.92;83.40;97391.89;1662236;86;25506;-65
2022/12/12 11:57:21;;;;;;;23.12;10.03;;;;;;;-0.90;83.67;97393.22;1709764;81;25758;-65
2022/12/12 12:00:17;;;;;;;22.77;9.48;;;;;;;-0.91;83.50;97395.66;1758817;81;25716;-66